Time;durP1;ratioP1;P1;durP2;ratioP2;P2;SDS_P1;SDS_P2;PMS_P1;PMS_P2;Temp;Humidity;BMP_temperature;BMP_pressure;BME280_temperature;BME280_humidity;BME280_pressure;Samples;Min_cycle;Max_cycle;Signal;HPM_P1;HPM_P2
2023/01/15 00:00:40;;;;;;;2.73;1.37;;;;;;;;;;5090532;28;20206;-52
2023/01/15 00:03:08;;;;;;;3.10;1.13;;;;;;;;;;5090689;28;20254;-52
2023/01/15 00:05:35;;;;;;;2.07;1.20;;;;;;;;;;5090433;28;20287;-51
2023/01/15 00:08:01;;;;;;;1.37;1.03;;;;;;;;;;5090563;28;20238;-52
2023/01/15 00:10:27;;;;;;;2.03;1.30;;;;;;;;;;5090389;28;20205;-52
2023/01/15 00:12:53;;;;;;;1.93;1.13;;;;;;;;;;5090473;28;20195;-52
2023/01/15 00:15:19;;;;;;;2.20;0.90;;;;;;;;;;5090357;28;20706;-51
2023/01/15 00:17:45;;;;;;;3.03;1.40;;;;;;;;;;5090369;28;20234;-51
2023/01/15 00:20:13;;;;;;;3.50;1.20;;;;;;;;;;5090782;28;20202;-51
2023/01/15 00:22:39;;;;;;;2.87;1.20;;;;;;;;;;5090410;28;20235;-52
2023/01/15 00:27:50;;;;;;;3.20;1.30;;;;;;;;;;5090467;28;20270;-52
2023/01/15 00:30:16;;;;;;;3.37;1.20;;;;;;;;;;5089990;28;20244;-52
2023/01/15 00:32:43;;;;;;;2.00;1.10;;;;;;;;;;5090237;28;20190;-53
2023/01/15 00:35:11;;;;;;;3.10;1.30;;;;;;;;;;5090186;28;20235;-53
2023/01/15 00:37:39;;;;;;;1.87;1.00;;;;;;;;;;5089839;28;20298;-52
2023/01/15 00:40:05;;;;;;;1.50;1.13;;;;;;;;;;5089926;28;20700;-53
2023/01/15 00:42:31;;;;;;;2.00;1.10;;;;;;;;;;5090012;28;20239;-53
2023/01/15 00:44:57;;;;;;;3.97;1.20;;;;;;;;;;5089854;28;20271;-53
2023/01/15 00:47:23;;;;;;;1.83;1.10;;;;;;;;;;5090016;28;20277;-53
2023/01/15 00:49:50;;;;;;;4.47;1.77;;;;;;;;;;5089747;28;20691;-53
2023/01/15 00:52:16;;;;;;;1.63;1.10;;;;;;;;;;5089805;28;20664;-53
2023/01/15 00:54:44;;;;;;;2.20;1.10;;;;;;;;;;5089844;28;20249;-52
2023/01/15 00:57:10;;;;;;;1.40;1.30;;;;;;;;;;5089879;28;20226;-53
2023/01/15 00:59:36;;;;;;;1.83;1.20;;;;;;;;;;5089663;28;20666;-53
2023/01/15 01:02:02;;;;;;;1.90;1.57;;;;;;;;;;5089780;28;20290;-53
2023/01/15 01:04:28;;;;;;;2.83;1.17;;;;;;;;;;5089465;28;20213;-53
2023/01/15 01:06:54;;;;;;;3.13;1.50;;;;;;;;;;5089777;28;20190;-53
2023/01/15 01:09:20;;;;;;;3.10;1.17;;;;;;;;;;5089477;28;20544;-53
2023/01/15 01:11:48;;;;;;;3.00;1.00;;;;;;;;;;5089589;28;20203;-53
2023/01/15 01:14:14;;;;;;;2.37;1.10;;;;;;;;;;5089676;28;20246;-53
2023/01/15 01:16:41;;;;;;;3.20;1.17;;;;;;;;;;5089466;28;20467;-53
2023/01/15 01:19:09;;;;;;;2.00;1.37;;;;;;;;;;5089752;28;20187;-53
2023/01/15 01:21:36;;;;;;;2.00;1.10;;;;;;;;;;5089675;28;20221;-53
2023/01/15 01:24:02;;;;;;;3.80;1.20;;;;;;;;;;5089370;28;20798;-53
2023/01/15 01:26:28;;;;;;;3.23;1.53;;;;;;;;;;5089849;28;20199;-53
2023/01/15 01:28:56;;;;;;;3.10;1.50;;;;;;;;;;5089345;28;20203;-53
2023/01/15 01:31:22;;;;;;;2.90;1.30;;;;;;;;;;5089529;28;20239;-53
2023/01/15 01:33:49;;;;;;;1.47;1.30;;;;;;;;;;5089653;28;20191;-52
2023/01/15 01:36:15;;;;;;;1.37;0.97;;;;;;;;;;5089117;28;20243;-52
2023/01/15 01:38:41;;;;;;;3.90;2.27;;;;;;;;;;5091461;28;20557;-52
2023/01/15 01:41:07;;;;;;;3.07;1.10;;;;;;;;;;5093388;28;20210;-52
2023/01/15 01:43:54;;;;;;;3.53;1.10;;;;;;;;;;5093169;28;20233;-53
2023/01/15 01:46:22;;;;;;;2.67;1.10;;;;;;;;;;5093062;28;20672;-51
2023/01/15 01:48:48;;;;;;;3.17;1.20;;;;;;;;;;5093266;28;20199;-52
2023/01/15 01:51:14;;;;;;;1.90;1.30;;;;;;;;;;5092984;28;20194;-51
2023/01/15 01:53:40;;;;;;;3.20;1.30;;;;;;;;;;5093032;28;20448;-51
2023/01/15 01:56:07;;;;;;;4.60;1.37;;;;;;;;;;5093187;28;20567;-52
2023/01/15 01:58:33;;;;;;;2.37;1.23;;;;;;;;;;5092943;28;20266;-51
2023/01/15 02:01:00;;;;;;;1.93;1.10;;;;;;;;;;5093120;28;20253;-52
2023/01/15 02:03:31;;;;;;;3.17;1.50;;;;;;;;;;5092694;28;20893;-51
2023/01/15 02:05:59;;;;;;;2.73;1.30;;;;;;;;;;5092870;28;20194;-52
2023/01/15 02:08:25;;;;;;;3.83;1.50;;;;;;;;;;5092978;28;20252;-52
2023/01/15 02:10:52;;;;;;;4.10;1.20;;;;;;;;;;5093026;28;20657;-52
2023/01/15 02:13:20;;;;;;;3.10;1.00;;;;;;;;;;5092830;28;20198;-52
2023/01/15 02:15:47;;;;;;;1.43;1.30;;;;;;;;;;5092967;28;20191;-52
2023/01/15 02:18:17;;;;;;;4.20;1.33;;;;;;;;;;5092639;28;20195;-52
2023/01/15 02:20:47;;;;;;;4.97;1.70;;;;;;;;;;5092580;28;20412;-52
2023/01/15 02:23:20;;;;;;;4.87;1.53;;;;;;;;;;5092632;28;20250;-51
2023/01/15 02:25:57;;;;;;;2.50;1.20;;;;;;;;;;5092557;28;20211;-52
2023/01/15 02:28:26;;;;;;;2.03;1.43;;;;;;;;;;5092387;28;20432;-52
2023/01/15 02:30:54;;;;;;;2.30;1.37;;;;;;;;;;5092497;28;20718;-52
2023/01/15 02:33:23;;;;;;;2.03;1.30;;;;;;;;;;5092449;28;20191;-52
2023/01/15 02:35:51;;;;;;;4.37;1.87;;;;;;;;;;5092238;28;20600;-51
2023/01/15 02:38:19;;;;;;;5.27;1.60;;;;;;;;;;5092148;28;20702;-52
2023/01/15 02:40:46;;;;;;;4.93;1.43;;;;;;;;;;5092312;28;20274;-52
2023/01/15 02:43:13;;;;;;;9.43;2.13;;;;;;;;;;5092131;28;20227;-52
2023/01/15 02:45:43;;;;;;;2.27;1.30;;;;;;;;;;5091877;28;20606;-55
2023/01/15 02:48:10;;;;;;;2.67;1.40;;;;;;;;;;5091993;28;20286;-52
2023/01/15 02:50:38;;;;;;;5.77;1.40;;;;;;;;;;5091066;28;20637;-52
2023/01/15 02:53:07;;;;;;;4.47;1.80;;;;;;;;;;5092085;28;20198;-52
2023/01/15 02:55:36;;;;;;;4.70;1.37;;;;;;;;;;5091953;28;20217;-52
2023/01/15 02:58:03;;;;;;;3.43;1.70;;;;;;;;;;5092023;28;20577;-52
2023/01/15 03:00:32;;;;;;;3.10;1.57;;;;;;;;;;5091950;28;20623;-52
2023/01/15 03:03:02;;;;;;;3.13;1.43;;;;;;;;;;5091753;28;20299;-51
2023/01/15 03:05:30;;;;;;;2.63;1.60;;;;;;;;;;5091515;28;20736;-53
2023/01/15 03:07:59;;;;;;;3.80;1.40;;;;;;;;;;5091813;28;20645;-52
2023/01/15 03:10:30;;;;;;;4.37;1.50;;;;;;;;;;5091711;28;20525;-53
2023/01/15 03:13:07;;;;;;;4.07;1.40;;;;;;;;;;5091971;28;20195;-52
2023/01/15 03:18:27;;;;;;;3.33;1.50;;;;;;;;;;5091685;28;20216;-53
2023/01/15 03:20:56;;;;;;;4.23;1.40;;;;;;;;;;5091745;28;20280;-52
2023/01/15 03:23:23;;;;;;;6.67;1.73;;;;;;;;;;5091582;28;20234;-52
2023/01/15 03:25:50;;;;;;;1.60;1.10;;;;;;;;;;5091695;28;20203;-52
2023/01/15 03:28:20;;;;;;;2.30;1.20;;;;;;;;;;5091416;28;20203;-52
2023/01/15 03:30:46;;;;;;;1.80;1.10;;;;;;;;;;5091121;28;20614;-51
2023/01/15 03:33:14;;;;;;;2.27;1.20;;;;;;;;;;5091135;28;20229;-51
2023/01/15 03:35:44;;;;;;;2.33;1.40;;;;;;;;;;5090932;28;20242;-51
2023/01/15 03:38:10;;;;;;;5.00;1.20;;;;;;;;;;5091095;28;20665;-50
2023/01/15 03:40:37;;;;;;;2.27;1.23;;;;;;;;;;5090844;28;20444;-51
2023/01/15 03:45:54;;;;;;;6.63;1.97;;;;;;;;;;5091140;28;20198;-51
2023/01/15 03:48:23;;;;;;;1.50;1.20;;;;;;;;;;5090988;28;20187;-51
2023/01/15 03:50:53;;;;;;;5.73;1.87;;;;;;;;;;5090778;28;20646;-51
2023/01/15 03:53:20;;;;;;;2.60;1.40;;;;;;;;;;5090939;28;20195;-51
2023/01/15 03:55:53;;;;;;;1.87;1.17;;;;;;;;;;5090909;28;20245;-51
2023/01/15 03:58:21;;;;;;;2.50;1.30;;;;;;;;;;5090783;28;20195;-51
2023/01/15 04:00:49;;;;;;;6.27;1.70;;;;;;;;;;5090164;28;20194;-51
2023/01/15 04:03:15;;;;;;;5.07;1.70;;;;;;;;;;5090439;28;20219;-51
2023/01/15 04:05:41;;;;;;;3.53;1.47;;;;;;;;;;5090525;28;20229;-51
2023/01/15 04:08:09;;;;;;;3.70;1.40;;;;;;;;;;5090493;28;20726;-51
2023/01/15 04:10:35;;;;;;;3.10;1.60;;;;;;;;;;5090984;28;20193;-51
2023/01/15 04:13:01;;;;;;;6.77;1.60;;;;;;;;;;5090627;28;20669;-51
2023/01/15 04:15:27;;;;;;;4.97;1.60;;;;;;;;;;5090184;28;20209;-50
2023/01/15 04:17:53;;;;;;;2.57;1.60;;;;;;;;;;5090617;28;20194;-51
2023/01/15 04:20:19;;;;;;;5.30;1.83;;;;;;;;;;5090321;28;20657;-51
2023/01/15 04:22:45;;;;;;;1.70;1.43;;;;;;;;;;5090229;28;20237;-51
2023/01/15 04:25:13;;;;;;;3.83;1.60;;;;;;;;;;5090453;28;20236;-51
2023/01/15 04:27:39;;;;;;;3.83;1.53;;;;;;;;;;5089928;28;20648;-51
2023/01/15 04:30:05;;;;;;;6.13;1.50;;;;;;;;;;5090196;28;20802;-51
2023/01/15 04:32:31;;;;;;;3.10;1.60;;;;;;;;;;5089982;28;20277;-51
2023/01/15 04:34:57;;;;;;;3.60;1.70;;;;;;;;;;5090028;28;20210;-51
2023/01/15 04:37:23;;;;;;;4.17;1.63;;;;;;;;;;5090317;28;20198;-51
2023/01/15 04:39:49;;;;;;;2.80;1.80;;;;;;;;;;5090028;28;20559;-51
2023/01/15 04:45:01;;;;;;;2.53;1.40;;;;;;;;;;5090398;28;20194;-51
2023/01/15 04:47:29;;;;;;;4.33;1.60;;;;;;;;;;5089958;28;20198;-51
2023/01/15 04:49:55;;;;;;;5.17;1.80;;;;;;;;;;5090510;28;20202;-51
2023/01/15 04:52:21;;;;;;;7.83;1.87;;;;;;;;;;5089941;28;20309;-51
2023/01/15 04:54:47;;;;;;;5.27;2.00;;;;;;;;;;5089902;28;20205;-51
2023/01/15 04:57:13;;;;;;;5.00;2.30;;;;;;;;;;5089985;28;20719;-51
2023/01/15 04:59:40;;;;;;;5.47;1.90;;;;;;;;;;5089746;28;20191;-51
2023/01/15 05:02:06;;;;;;;6.17;2.20;;;;;;;;;;5090023;28;20207;-51
2023/01/15 05:04:32;;;;;;;4.57;1.97;;;;;;;;;;5089725;28;20213;-51
2023/01/15 05:07:00;;;;;;;6.13;2.17;;;;;;;;;;5089716;28;20179;-51
2023/01/15 05:09:26;;;;;;;5.43;2.17;;;;;;;;;;5089760;28;20539;-51
2023/01/15 05:11:52;;;;;;;4.40;1.90;;;;;;;;;;5089491;28;20524;-51
2023/01/15 05:14:18;;;;;;;3.30;2.00;;;;;;;;;;5093146;28;20661;-51
2023/01/15 05:16:45;;;;;;;3.33;2.10;;;;;;;;;;5094076;28;20198;-51
2023/01/15 05:19:11;;;;;;;4.77;2.10;;;;;;;;;;5093896;28;20269;-51
2023/01/15 05:21:39;;;;;;;5.03;1.90;;;;;;;;;;5093811;28;20939;-51
2023/01/15 05:24:07;;;;;;;3.27;2.27;;;;;;;;;;5093639;28;20575;-51
2023/01/15 05:26:34;;;;;;;8.40;2.57;;;;;;;;;;5093419;28;20443;-51
2023/01/15 05:29:00;;;;;;;3.90;2.67;;;;;;;;;;5093829;28;20877;-52
2023/01/15 05:31:27;;;;;;;5.53;2.27;;;;;;;;;;5093409;28;20933;-52
2023/01/15 05:33:54;;;;;;;6.90;2.40;;;;;;;;;;5093611;28;20482;-52
2023/01/15 05:36:21;;;;;;;7.23;2.50;;;;;;;;;;5093577;28;20472;-51
2023/01/15 05:38:47;;;;;;;5.00;1.93;;;;;;;;;;5093329;28;20475;-51
2023/01/15 05:44:00;;;;;;;4.20;2.20;;;;;;;;;;5093444;28;20510;-51
2023/01/15 05:46:26;;;;;;;7.03;2.57;;;;;;;;;;5093282;28;20447;-51
2023/01/15 05:48:52;;;;;;;6.13;2.00;;;;;;;;;;5093487;28;20444;-51
2023/01/15 05:51:19;;;;;;;8.20;2.40;;;;;;;;;;5093197;28;20210;-51
2023/01/15 05:53:45;;;;;;;3.20;1.70;;;;;;;;;;5092940;28;20198;-52
2023/01/15 05:56:11;;;;;;;6.70;2.20;;;;;;;;;;5093255;28;20282;-51
2023/01/15 05:58:37;;;;;;;6.77;2.27;;;;;;;;;;5092860;28;20194;-52
2023/01/15 06:01:06;;;;;;;5.87;2.10;;;;;;;;;;5093696;28;20298;-52
2023/01/15 06:03:32;;;;;;;3.97;1.93;;;;;;;;;;5093253;28;20468;-52
2023/01/15 06:05:58;;;;;;;7.10;2.23;;;;;;;;;;5092905;28;20954;-52
2023/01/15 06:08:25;;;;;;;5.33;2.53;;;;;;;;;;5092882;28;20199;-52
2023/01/15 06:10:51;;;;;;;5.33;2.27;;;;;;;;;;5093060;28;20535;-52
2023/01/15 06:13:17;;;;;;;8.63;2.67;;;;;;;;;;5092820;28;20242;-53
2023/01/15 06:15:43;;;;;;;7.57;2.00;;;;;;;;;;5092733;28;20202;-52
2023/01/15 06:18:09;;;;;;;6.27;2.20;;;;;;;;;;5092761;28;20545;-52
2023/01/15 06:20:35;;;;;;;8.43;2.30;;;;;;;;;;5092632;28;20440;-52
2023/01/15 06:23:01;;;;;;;5.90;2.30;;;;;;;;;;5092486;28;20284;-52
2023/01/15 06:25:28;;;;;;;4.37;2.17;;;;;;;;;;5092614;28;20433;-52
2023/01/15 06:27:54;;;;;;;5.57;2.40;;;;;;;;;;5092764;28;20338;-53
2023/01/15 06:30:20;;;;;;;6.87;2.53;;;;;;;;;;5092564;28;21049;-53
2023/01/15 06:32:46;;;;;;;13.27;2.67;;;;;;;;;;5092504;28;20686;-52
2023/01/15 06:35:13;;;;;;;4.93;2.03;;;;;;;;;;5092256;28;20480;-52
2023/01/15 06:37:39;;;;;;;4.97;2.07;;;;;;;;;;5092263;28;20256;-53
2023/01/15 06:40:05;;;;;;;4.73;1.90;;;;;;;;;;5092707;28;20440;-53
2023/01/15 06:48:02;;;;;;;5.70;2.40;;;;;;;;;;5092203;28;20268;-52
2023/01/15 06:50:28;;;;;;;8.27;1.90;;;;;;;;;;5091866;28;20293;-52
2023/01/15 06:52:54;;;;;;;4.57;1.70;;;;;;;;;;5092112;28;20437;-52
2023/01/15 06:55:22;;;;;;;7.30;2.30;;;;;;;;;;5092090;28;20198;-52
2023/01/15 06:57:50;;;;;;;4.37;1.53;;;;;;;;;;5091728;28;20280;-52
2023/01/15 07:00:16;;;;;;;7.43;2.17;;;;;;;;;;5091981;28;20207;-53
2023/01/15 07:02:42;;;;;;;5.77;2.20;;;;;;;;;;5091821;28;20313;-52
2023/01/15 07:05:08;;;;;;;5.87;2.50;;;;;;;;;;5091691;28;20544;-52
2023/01/15 07:07:34;;;;;;;4.97;1.60;;;;;;;;;;5091849;28;20202;-52
2023/01/15 07:10:00;;;;;;;7.87;2.77;;;;;;;;;;5091703;28;20270;-52
2023/01/15 07:12:26;;;;;;;10.23;2.27;;;;;;;;;;5091593;28;20294;-52
2023/01/15 07:14:54;;;;;;;7.67;2.33;;;;;;;;;;5091435;28;20238;-52
2023/01/15 07:17:20;;;;;;;7.50;3.00;;;;;;;;;;5091466;28;20202;-52
2023/01/15 07:19:46;;;;;;;5.87;2.43;;;;;;;;;;5091785;28;20672;-52
2023/01/15 07:22:12;;;;;;;8.87;3.70;;;;;;;;;;5091382;28;20201;-52
2023/01/15 07:24:38;;;;;;;4.73;2.47;;;;;;;;;;5091283;28;20481;-52
2023/01/15 07:27:05;;;;;;;7.20;3.63;;;;;;;;;;5091470;28;20504;-52
2023/01/15 07:29:31;;;;;;;7.90;3.50;;;;;;;;;;5090974;28;20432;-52
2023/01/15 07:31:58;;;;;;;8.10;3.33;;;;;;;;;;5091245;28;20433;-52
2023/01/15 07:34:24;;;;;;;11.13;3.83;;;;;;;;;;5091072;28;20205;-52
2023/01/15 07:36:50;;;;;;;9.07;4.03;;;;;;;;;;5090230;28;20555;-52
2023/01/15 07:39:16;;;;;;;6.67;2.73;;;;;;;;;;5091267;28;20536;-52
2023/01/15 07:50:03;;;;;;;5.40;1.93;;;;;;;;;;5091079;28;20877;-52
2023/01/15 07:52:29;;;;;;;9.00;2.10;;;;;;;;;;5090875;28;20421;-52
2023/01/15 07:54:55;;;;;;;8.23;2.20;;;;;;;;;;5090851;28;20942;-53
2023/01/15 07:57:22;;;;;;;6.47;1.97;;;;;;;;;;5090674;28;20222;-52
2023/01/15 07:59:48;;;;;;;5.80;2.13;;;;;;;;;;5090690;28;20199;-53
2023/01/15 08:02:16;;;;;;;5.60;2.17;;;;;;;;;;5090783;28;20477;-52
2023/01/15 08:04:42;;;;;;;4.97;1.90;;;;;;;;;;5090440;28;20647;-52
2023/01/15 08:07:08;;;;;;;8.53;2.43;;;;;;;;;;5090639;28;20522;-52
2023/01/15 08:09:34;;;;;;;5.37;2.00;;;;;;;;;;5090384;28;20641;-52
2023/01/15 08:17:32;;;;;;;6.53;2.20;;;;;;;;;;5090374;28;20779;-52
2023/01/15 08:19:58;;;;;;;8.87;2.70;;;;;;;;;;5088834;28;20849;-52
2023/01/15 08:22:24;;;;;;;7.13;3.00;;;;;;;;;;5090407;28;20195;-53
2023/01/15 08:24:50;;;;;;;10.47;2.77;;;;;;;;;;5090215;28;20600;-52
2023/01/15 08:27:16;;;;;;;7.30;2.57;;;;;;;;;;5090242;28;20472;-52
2023/01/15 08:29:42;;;;;;;5.47;2.27;;;;;;;;;;5090615;28;20553;-52
2023/01/15 08:32:08;;;;;;;6.20;2.40;;;;;;;;;;5090005;28;20429;-52
2023/01/15 08:34:36;;;;;;;9.07;2.40;;;;;;;;;;5090172;28;20194;-52
2023/01/15 08:37:02;;;;;;;5.83;2.30;;;;;;;;;;5089847;28;20663;-52
2023/01/15 08:39:28;;;;;;;5.63;2.10;;;;;;;;;;5090157;28;20236;-52
2023/01/15 08:41:54;;;;;;;6.97;2.37;;;;;;;;;;5090042;28;20194;-53
2023/01/15 08:44:20;;;;;;;4.13;2.07;;;;;;;;;;5090105;28;20226;-53
2023/01/15 08:46:47;;;;;;;4.70;2.10;;;;;;;;;;5090062;28;20203;-52
2023/01/15 08:49:13;;;;;;;8.37;2.40;;;;;;;;;;5089846;28;20611;-52
2023/01/15 08:51:40;;;;;;;10.33;2.37;;;;;;;;;;5089790;28;20248;-52
2023/01/15 08:54:06;;;;;;;11.07;2.47;;;;;;;;;;5090167;28;20203;-52
2023/01/15 08:56:32;;;;;;;6.60;2.13;;;;;;;;;;5089711;28;20201;-52
2023/01/15 08:58:58;;;;;;;6.63;2.60;;;;;;;;;;5090023;28;20653;-52
2023/01/15 09:01:24;;;;;;;6.70;2.30;;;;;;;;;;5089597;28;20190;-52
2023/01/15 09:03:50;;;;;;;7.33;2.60;;;;;;;;;;5089594;28;20949;-52
2023/01/15 09:06:16;;;;;;;4.73;2.00;;;;;;;;;;5089916;28;20203;-52
2023/01/15 09:08:43;;;;;;;6.67;2.07;;;;;;;;;;5089630;28;20195;-52
2023/01/15 09:11:11;;;;;;;8.50;2.53;;;;;;;;;;5089773;28;20203;-52
2023/01/15 09:13:37;;;;;;;5.10;2.00;;;;;;;;;;5089619;28;20199;-52
2023/01/15 09:16:05;;;;;;;6.47;2.20;;;;;;;;;;5089481;28;20248;-52
2023/01/15 09:18:31;;;;;;;3.77;1.80;;;;;;;;;;5089577;28;20191;-51
2023/01/15 09:20:57;;;;;;;4.33;1.90;;;;;;;;;;5089464;28;20933;-52
2023/01/15 09:23:23;;;;;;;6.07;2.40;;;;;;;;;;5089485;28;20231;-52
2023/01/15 09:25:53;;;;;;;5.83;2.43;;;;;;;;;;5089559;28;20198;-52
2023/01/15 09:28:19;;;;;;;7.13;2.43;;;;;;;;;;5089526;28;20284;-52
2023/01/15 09:30:45;;;;;;;8.77;2.63;;;;;;;;;;5089301;28;20215;-52
2023/01/15 09:33:12;;;;;;;7.33;3.83;;;;;;;;;;5089668;28;20195;-51
2023/01/15 09:35:38;;;;;;;6.27;2.70;;;;;;;;;;5089139;28;20605;-53
2023/01/15 09:38:04;;;;;;;4.30;2.33;;;;;;;;;;5089596;28;20199;-52
2023/01/15 09:40:39;;;;;;;4.90;2.03;;;;;;;;;;5089228;28;20591;-52
2023/01/15 09:43:08;;;;;;;4.50;1.80;;;;;;;;;;5089455;28;20229;-52
2023/01/15 09:45:37;;;;;;;6.53;2.30;;;;;;;;;;5089274;28;20726;-52
2023/01/15 09:48:17;;;;;;;4.07;1.80;;;;;;;;;;5089324;28;20203;-52
2023/01/15 09:50:48;;;;;;;6.53;2.13;;;;;;;;;;5089108;28;20210;-53
2023/01/15 09:53:36;;;;;;;4.93;2.17;;;;;;;;;;5089190;28;20195;-52
2023/01/15 09:56:02;;;;;;;4.47;1.93;;;;;;;;;;5089210;28;20191;-52
2023/01/15 09:58:33;;;;;;;3.23;1.60;;;;;;;;;;5088188;28;20256;-53
2023/01/15 10:00:59;;;;;;;3.70;1.90;;;;;;;;;;5092926;28;20191;-53
2023/01/15 10:03:28;;;;;;;7.03;1.70;;;;;;;;;;5092872;28;20234;-53
2023/01/15 10:05:56;;;;;;;4.30;1.70;;;;;;;;;;5092871;28;20198;-52
2023/01/15 10:08:24;;;;;;;5.80;1.80;;;;;;;;;;5093142;28;20609;-53
2023/01/15 10:10:51;;;;;;;5.03;2.10;;;;;;;;;;5092750;28;20217;-52
2023/01/15 10:13:21;;;;;;;2.53;1.70;;;;;;;;;;5092820;28;20660;-52
2023/01/15 10:15:49;;;;;;;3.17;1.70;;;;;;;;;;5092662;28;20238;-51
2023/01/15 10:18:16;;;;;;;4.97;1.80;;;;;;;;;;5092930;28;20214;-52
2023/01/15 10:20:48;;;;;;;2.80;1.60;;;;;;;;;;5092445;28;20203;-52
2023/01/15 10:23:21;;;;;;;5.37;1.60;;;;;;;;;;5092262;28;20231;-52
2023/01/15 10:25:48;;;;;;;3.40;1.47;;;;;;;;;;5092450;28;20191;-51
2023/01/15 10:28:18;;;;;;;5.17;1.70;;;;;;;;;;5092537;28;20272;-53
2023/01/15 10:30:46;;;;;;;4.83;1.63;;;;;;;;;;5092441;28;20214;-52
2023/01/15 10:33:19;;;;;;;4.30;2.10;;;;;;;;;;5092479;28;20195;-52
2023/01/15 10:35:47;;;;;;;5.03;1.70;;;;;;;;;;5092112;28;20244;-52
2023/01/15 10:38:17;;;;;;;5.13;1.73;;;;;;;;;;5092187;28;20190;-52
2023/01/15 10:40:51;;;;;;;2.87;1.50;;;;;;;;;;5092243;28;20195;-52
2023/01/15 10:43:20;;;;;;;3.93;1.67;;;;;;;;;;5091982;28;20221;-52
2023/01/15 10:45:46;;;;;;;3.83;1.63;;;;;;;;;;5092392;28;20183;-52
2023/01/15 10:48:18;;;;;;;5.70;1.90;;;;;;;;;;5091961;28;20195;-52
2023/01/15 10:50:46;;;;;;;4.20;1.80;;;;;;;;;;5091881;28;20256;-52
2023/01/15 10:53:16;;;;;;;4.53;1.60;;;;;;;;;;5091879;28;20210;-52
2023/01/15 10:55:43;;;;;;;6.73;1.80;;;;;;;;;;5092040;28;20203;-52
2023/01/15 10:58:14;;;;;;;4.33;1.63;;;;;;;;;;5092003;28;20195;-52
2023/01/15 11:00:40;;;;;;;5.80;1.60;;;;;;;;;;5091659;28;20206;-52
2023/01/15 11:03:13;;;;;;;11.67;1.90;;;;;;;;;;5091743;28;20689;-51
2023/01/15 11:05:39;;;;;;;3.20;1.50;;;;;;;;;;5091654;28;20657;-52
2023/01/15 11:08:11;;;;;;;5.23;1.80;;;;;;;;;;5091877;28;20611;-53
2023/01/15 11:10:38;;;;;;;3.53;1.40;;;;;;;;;;5090660;28;20220;-51
2023/01/15 11:21:31;;;;;;;5.13;1.50;;;;;;;;;;5091597;28;20214;-53
2023/01/15 11:23:59;;;;;;;4.53;1.90;;;;;;;;;;5091420;28;20649;-51
2023/01/15 11:26:26;;;;;;;3.70;1.60;;;;;;;;;;5091292;28;20233;-52
2023/01/15 11:28:52;;;;;;;3.77;1.70;;;;;;;;;;5091413;28;20622;-53
2023/01/15 11:31:18;;;;;;;4.70;1.77;;;;;;;;;;5091471;28;20203;-52
2023/01/15 11:33:45;;;;;;;2.60;1.67;;;;;;;;;;5091093;28;20413;-53
2023/01/15 11:36:20;;;;;;;3.83;1.60;;;;;;;;;;5091266;28;20226;-52
2023/01/15 11:38:48;;;;;;;4.50;1.80;;;;;;;;;;5091205;28;20210;-53
2023/01/15 11:41:21;;;;;;;2.50;1.80;;;;;;;;;;5091478;28;20206;-52
2023/01/15 11:52:08;;;;;;;3.97;1.73;;;;;;;;;;5090804;28;20190;-51
2023/01/15 11:54:36;;;;;;;3.30;1.60;;;;;;;;;;5091000;28;20507;-53
2023/01/15 11:57:05;;;;;;;2.97;1.77;;;;;;;;;;5090740;28;20293;-51
2023/01/15 11:59:32;;;;;;;3.70;1.60;;;;;;;;;;5090710;28;20286;-52
2023/01/15 12:01:59;;;;;;;5.50;1.70;;;;;;;;;;5090705;28;20190;-54
2023/01/15 12:04:27;;;;;;;4.07;1.50;;;;;;;;;;5090649;28;20223;-52
2023/01/15 12:06:53;;;;;;;3.90;1.50;;;;;;;;;;5090559;28;20203;-53
2023/01/15 12:09:25;;;;;;;4.83;1.77;;;;;;;;;;5090792;28;20626;-51
2023/01/15 12:11:57;;;;;;;2.73;1.40;;;;;;;;;;5090520;28;20203;-51
2023/01/15 12:14:32;;;;;;;4.50;1.87;;;;;;;;;;5090775;28;20272;-52
2023/01/15 12:17:01;;;;;;;7.13;1.50;;;;;;;;;;5090563;28;20222;-51
2023/01/15 12:19:32;;;;;;;3.30;1.60;;;;;;;;;;5090513;28;20569;-52
2023/01/15 12:22:17;;;;;;;5.80;1.90;;;;;;;;;;5090108;28;20298;-56
2023/01/15 12:24:53;;;;;;;2.40;1.37;;;;;;;;;;5090172;28;20685;-52
2023/01/15 12:27:28;;;;;;;3.97;1.50;;;;;;;;;;5090311;28;20197;-51
2023/01/15 12:29:58;;;;;;;6.27;1.80;;;;;;;;;;5090267;28;20252;-52
2023/01/15 12:32:24;;;;;;;3.97;1.93;;;;;;;;;;5090155;28;20576;-52
2023/01/15 12:34:52;;;;;;;3.47;1.57;;;;;;;;;;5090025;28;20199;-53
2023/01/15 12:37:21;;;;;;;2.90;1.33;;;;;;;;;;5090089;28;20191;-53
2023/01/15 12:39:49;;;;;;;3.27;1.67;;;;;;;;;;5090177;28;20213;-51
2023/01/15 12:45:07;;;;;;;3.00;1.73;;;;;;;;;;5089994;28;20594;-51
2023/01/15 12:47:35;;;;;;;3.47;1.90;;;;;;;;;;5089966;28;20290;-51
2023/01/15 12:50:04;;;;;;;4.67;1.93;;;;;;;;;;5089731;28;20199;-50
2023/01/15 12:52:33;;;;;;;2.57;1.67;;;;;;;;;;5089807;28;20248;-51
2023/01/15 12:55:01;;;;;;;3.83;1.40;;;;;;;;;;5089777;28;20210;-51
2023/01/15 12:57:33;;;;;;;3.27;1.80;;;;;;;;;;5089899;28;20661;-51
2023/01/15 13:00:02;;;;;;;5.60;2.00;;;;;;;;;;5089567;28;20499;-53
2023/01/15 13:02:34;;;;;;;3.33;1.70;;;;;;;;;;5089619;28;20189;-51
2023/01/15 13:05:06;;;;;;;3.40;1.67;;;;;;;;;;5089556;28;20238;-52
2023/01/15 13:07:35;;;;;;;3.83;1.60;;;;;;;;;;5089563;28;20214;-51
2023/01/15 13:10:06;;;;;;;4.00;1.70;;;;;;;;;;5089850;28;20195;-51
2023/01/15 13:12:32;;;;;;;4.70;1.87;;;;;;;;;;5089719;28;20199;-51
2023/01/15 13:14:58;;;;;;;7.43;1.80;;;;;;;;;;5089799;28;20195;-52
2023/01/15 13:17:28;;;;;;;7.27;1.60;;;;;;;;;;5089963;28;20197;-51
2023/01/15 13:20:03;;;;;;;7.07;1.60;;;;;;;;;;5089756;28;20207;-51
2023/01/15 13:22:30;;;;;;;6.57;1.90;;;;;;;;;;5089682;28;20392;-52
2023/01/15 13:25:08;;;;;;;4.10;1.60;;;;;;;;;;5089314;28;20317;-52
2023/01/15 13:27:41;;;;;;;4.00;1.67;;;;;;;;;;5089595;28;20741;-52
2023/01/15 13:30:15;;;;;;;4.47;1.70;;;;;;;;;;5089449;28;20265;-52
2023/01/15 13:32:43;;;;;;;4.20;1.93;;;;;;;;;;5089413;28;20290;-52
2023/01/15 13:35:12;;;;;;;4.80;1.63;;;;;;;;;;5092563;28;20625;-52
2023/01/15 13:37:42;;;;;;;4.93;1.70;;;;;;;;;;5093373;28;20217;-52
2023/01/15 13:40:10;;;;;;;5.60;2.10;;;;;;;;;;5093564;28;20224;-52
2023/01/15 13:42:39;;;;;;;3.57;1.87;;;;;;;;;;5093210;28;20282;-52
2023/01/15 13:45:26;;;;;;;6.70;2.13;;;;;;;;;;5093400;28;20237;-51
2023/01/15 13:47:54;;;;;;;3.67;1.60;;;;;;;;;;5093229;28;20191;-52
2023/01/15 13:50:25;;;;;;;3.07;1.63;;;;;;;;;;5093254;28;20214;-52
2023/01/15 13:52:59;;;;;;;3.97;1.70;;;;;;;;;;5093172;28;20199;-52
2023/01/15 13:55:28;;;;;;;4.30;1.70;;;;;;;;;;5093233;28;20781;-53
2023/01/15 13:57:54;;;;;;;4.37;1.90;;;;;;;;;;5092973;28;20665;-52
2023/01/15 14:00:26;;;;;;;4.87;2.40;;;;;;;;;;5093119;28;20219;-51
2023/01/15 14:02:54;;;;;;;4.80;1.80;;;;;;;;;;5092853;28;20210;-52
2023/01/15 14:05:26;;;;;;;4.47;1.60;;;;;;;;;;5092878;28;20636;-51
2023/01/15 14:07:53;;;;;;;4.67;1.67;;;;;;;;;;5092855;28;20230;-52
2023/01/15 14:10:23;;;;;;;4.50;1.60;;;;;;;;;;5093183;28;20291;-51
2023/01/15 14:12:53;;;;;;;5.97;1.87;;;;;;;;;;5092700;28;20218;-51
2023/01/15 14:15:27;;;;;;;5.60;1.70;;;;;;;;;;5093050;28;20187;-51
2023/01/15 14:18:07;;;;;;;8.77;1.70;;;;;;;;;;5092599;28;20195;-51
2023/01/15 14:20:43;;;;;;;3.93;1.53;;;;;;;;;;5092808;28;20248;-51
2023/01/15 14:23:18;;;;;;;3.13;1.40;;;;;;;;;;5092730;28;20277;-51
2023/01/15 14:25:51;;;;;;;4.67;1.70;;;;;;;;;;5092372;28;20294;-51
2023/01/15 14:28:23;;;;;;;8.13;2.00;;;;;;;;;;5092480;28;20193;-51
2023/01/15 14:31:10;;;;;;;6.30;1.97;;;;;;;;;;5092282;28;20226;-51
2023/01/15 14:33:42;;;;;;;4.17;1.87;;;;;;;;;;5085861;28;20198;-51
2023/01/15 14:36:10;;;;;;;5.17;1.90;;;;;;;;;;5092378;28;20281;-51
2023/01/15 14:38:36;;;;;;;3.50;1.63;;;;;;;;;;5092432;28;20195;-50
2023/01/15 14:41:04;;;;;;;3.90;1.70;;;;;;;;;;5092005;28;20198;-51
2023/01/15 14:43:32;;;;;;;5.23;2.17;;;;;;;;;;5092229;28;20804;-50
2023/01/15 14:46:08;;;;;;;5.03;2.00;;;;;;;;;;5092259;28;20231;-50
2023/01/15 14:48:37;;;;;;;4.40;2.10;;;;;;;;;;5092209;28;20237;-52
2023/01/15 14:51:11;;;;;;;5.83;2.17;;;;;;;;;;5092093;28;20433;-52
2023/01/15 14:53:41;;;;;;;3.13;1.80;;;;;;;;;;5092054;28;20661;-51
2023/01/15 14:56:13;;;;;;;4.10;1.80;;;;;;;;;;5091859;28;20437;-51
2023/01/15 14:58:46;;;;;;;4.90;1.77;;;;;;;;;;5091916;28;20444;-52
2023/01/15 15:01:16;;;;;;;3.13;1.70;;;;;;;;;;5091857;28;20437;-52
2023/01/15 15:03:48;;;;;;;2.93;1.80;;;;;;;;;;5091445;28;20495;-53
2023/01/15 15:06:15;;;;;;;3.70;1.80;;;;;;;;;;5091829;28;20483;-53
2023/01/15 15:08:42;;;;;;;4.90;1.80;;;;;;;;;;5091861;28;20440;-53
2023/01/15 15:12:17;;;;;;;4.63;1.80;;;;;;;;;;5091652;28;20220;-51
2023/01/15 15:14:02;;;;;;;3.73;1.50;;;;;;;;;;5091784;28;20306;-52
2023/01/15 15:16:30;;;;;;;6.63;1.70;;;;;;;;;;5091661;28;20448;-52
2023/01/15 15:19:00;;;;;;;5.63;1.70;;;;;;;;;;5091624;28;20199;-52
2023/01/15 15:21:28;;;;;;;3.33;1.60;;;;;;;;;;5091690;28;20183;-52
2023/01/15 15:23:57;;;;;;;5.87;1.53;;;;;;;;;;5091249;28;21029;-51
2023/01/15 15:26:25;;;;;;;5.30;1.57;;;;;;;;;;5091305;28;21050;-51
2023/01/15 15:28:55;;;;;;;3.20;1.60;;;;;;;;;;5091362;28;20248;-51
2023/01/15 15:31:24;;;;;;;4.63;1.70;;;;;;;;;;5091532;28;20194;-52
2023/01/15 15:33:50;;;;;;;5.63;1.40;;;;;;;;;;5091240;28;20183;-52
2023/01/15 15:36:17;;;;;;;2.57;1.50;;;;;;;;;;5091033;28;20568;-52
2023/01/15 15:38:52;;;;;;;3.70;1.57;;;;;;;;;;5091302;28;20195;-52
2023/01/15 15:48:40;;;;;;;2.83;1.50;;;;;;;;;;5091018;28;20657;-51